createdAt,value
2019-03-11T00:00:11.854Z,99.90
2019-03-11T00:02:39.593Z,99.90
2019-03-11T00:05:07.841Z,99.90
2019-03-11T00:07:35.620Z,99.90
2019-03-11T00:10:03.887Z,99.90
2019-03-11T00:12:31.618Z,99.90
2019-03-11T00:15:00.968Z,99.90
2019-03-11T00:17:28.693Z,99.90
2019-03-11T00:19:56.449Z,99.90
2019-03-11T00:22:24.169Z,99.90
2019-03-11T00:24:51.934Z,99.90
2019-03-11T00:27:19.672Z,99.90
2019-03-11T00:29:49.356Z,99.90
2019-03-11T00:32:16.966Z,99.90
2019-03-11T00:34:44.908Z,99.90
2019-03-11T00:37:12.648Z,99.90
2019-03-11T00:39:40.413Z,99.90
2019-03-11T00:42:08.145Z,99.90
2019-03-11T00:44:35.886Z,99.90
2019-03-11T00:47:03.642Z,99.90
2019-03-11T00:49:31.379Z,99.90
2019-03-11T00:51:59.140Z,99.90
2019-03-11T00:54:26.845Z,99.90
2019-03-11T00:56:54.592Z,99.90
2019-03-11T00:59:22.321Z,99.90
2019-03-11T01:01:50.086Z,99.90
2019-03-11T01:04:20.215Z,99.90
2019-03-11T01:06:50.262Z,99.90
2019-03-11T01:09:18.378Z,99.90
2019-03-11T01:11:46.118Z,99.90
2019-03-11T01:14:13.853Z,99.90
2019-03-11T01:16:41.602Z,99.90
2019-03-11T01:19:09.392Z,99.90
2019-03-11T01:21:37.155Z,99.90
2019-03-11T01:24:04.893Z,99.90
2019-03-11T01:26:32.635Z,99.90
2019-03-11T01:29:00.370Z,99.90
2019-03-11T01:31:28.141Z,99.90
2019-03-11T01:33:55.893Z,99.90
2019-03-11T01:36:23.641Z,99.90
2019-03-11T01:38:51.388Z,99.90
2019-03-11T01:41:19.264Z,99.90
2019-03-11T01:43:46.989Z,99.90
2019-03-11T01:46:14.723Z,99.90
2019-03-11T01:48:42.459Z,99.90
2019-03-11T01:51:10.193Z,99.90
2019-03-11T01:53:37.913Z,99.90
2019-03-11T01:56:05.655Z,99.90
2019-03-11T01:58:33.425Z,99.90
2019-03-11T02:01:01.168Z,99.90
2019-03-11T02:03:28.926Z,99.90
2019-03-11T02:05:56.689Z,99.90
2019-03-11T02:08:24.438Z,99.90
2019-03-11T02:10:52.289Z,99.90
2019-03-11T02:13:22.320Z,99.90
2019-03-11T02:15:50.149Z,99.90
2019-03-11T02:18:17.937Z,99.90
2019-03-11T02:20:45.656Z,99.90
2019-03-11T02:23:13.414Z,99.90
2019-03-11T02:25:41.156Z,99.90
2019-03-11T02:28:08.915Z,99.90
2019-03-11T02:30:36.667Z,99.90
2019-03-11T02:33:04.403Z,99.90
2019-03-11T02:35:32.137Z,99.90
2019-03-11T02:38:00.001Z,99.90
2019-03-11T02:40:27.913Z,99.90
2019-03-11T02:42:55.623Z,99.90
2019-03-11T02:45:23.576Z,99.90
2019-03-11T02:47:51.326Z,99.90
2019-03-11T02:50:19.073Z,99.90
2019-03-11T02:52:46.823Z,99.90
2019-03-11T02:55:14.555Z,99.90
2019-03-11T02:57:42.309Z,99.90
2019-03-11T03:00:12.048Z,99.90
2019-03-11T03:02:49.763Z,99.90
2019-03-11T03:05:26.984Z,99.90
2019-03-11T03:07:54.834Z,99.90
2019-03-11T03:10:22.564Z,99.90
2019-03-11T03:12:50.329Z,99.90
2019-03-11T03:15:18.043Z,99.90
2019-03-11T03:17:45.793Z,99.90
2019-03-11T03:20:13.560Z,99.90
2019-03-11T03:22:41.296Z,99.90
2019-03-11T03:25:09.291Z,99.90
2019-03-11T03:27:37.072Z,99.90
2019-03-11T03:30:06.912Z,99.90
2019-03-11T03:32:34.665Z,99.90
2019-03-11T03:35:02.472Z,99.90
2019-03-11T03:37:30.221Z,99.90
2019-03-11T03:39:57.971Z,99.90
2019-03-11T03:42:25.700Z,99.90
2019-03-11T03:45:31.257Z,99.90
2019-03-11T03:47:59.142Z,99.90
2019-03-11T03:50:27.807Z,99.90
2019-03-11T03:52:55.562Z,99.90
2019-03-11T03:55:23.306Z,99.90
2019-03-11T03:57:51.030Z,99.90
2019-03-11T04:00:18.920Z,99.90
2019-03-11T04:02:46.720Z,99.90
2019-03-11T04:05:14.422Z,99.90
2019-03-11T04:07:42.182Z,99.90
2019-03-11T04:10:11.007Z,99.90
2019-03-11T04:12:38.734Z,99.90
2019-03-11T04:15:06.665Z,99.90
2019-03-11T04:17:34.386Z,99.90
2019-03-11T04:20:02.131Z,99.90
2019-03-11T04:22:31.194Z,99.90
2019-03-11T04:25:00.594Z,99.90
2019-03-11T04:27:28.391Z,99.90
2019-03-11T04:29:56.189Z,99.90
2019-03-11T04:32:23.945Z,99.90
2019-03-11T04:34:51.809Z,99.90
2019-03-11T04:37:19.590Z,99.90
2019-03-11T04:39:47.344Z,99.90
2019-03-11T04:42:15.072Z,99.90
2019-03-11T04:44:42.842Z,99.90
2019-03-11T04:47:10.605Z,99.90
2019-03-11T04:49:38.333Z,99.90
2019-03-11T04:52:06.069Z,99.90
2019-03-11T04:54:33.801Z,99.90
2019-03-11T04:57:02.489Z,99.90
2019-03-11T04:59:30.601Z,99.90
2019-03-11T05:01:58.353Z,99.90
2019-03-11T05:04:26.078Z,99.90
2019-03-11T05:06:53.918Z,99.90
2019-03-11T05:09:21.649Z,99.90
2019-03-11T05:11:49.395Z,99.90
2019-03-11T05:14:17.152Z,99.90
2019-03-11T05:16:44.894Z,99.90
2019-03-11T05:19:12.630Z,99.90
2019-03-11T05:21:40.379Z,99.90
2019-03-11T05:24:08.129Z,99.90
2019-03-11T05:26:35.874Z,99.90
2019-03-11T05:29:03.702Z,99.90
2019-03-11T05:31:31.589Z,99.90
2019-03-11T05:33:59.682Z,99.90
2019-03-11T05:36:27.423Z,99.90
2019-03-11T05:38:55.161Z,99.90
2019-03-11T05:41:22.915Z,99.90
2019-03-11T05:43:50.629Z,99.90
2019-03-11T05:46:18.415Z,99.90
2019-03-11T05:48:46.134Z,99.90
2019-03-11T05:51:13.854Z,99.90
2019-03-11T05:53:41.617Z,99.90
2019-03-11T05:56:09.349Z,99.90
2019-03-11T05:58:37.113Z,99.90
2019-03-11T06:01:04.862Z,99.90
2019-03-11T06:03:32.621Z,99.90
2019-03-11T06:06:00.360Z,99.90
2019-03-11T06:08:28.157Z,99.90
2019-03-11T06:10:56.891Z,99.90
2019-03-11T06:13:35.352Z,99.90
2019-03-11T06:15:54.394Z,99.90
2019-03-11T06:18:44.066Z,99.90
2019-03-11T06:21:32.853Z,99.90
2019-03-11T06:24:00.621Z,99.90
2019-03-11T06:26:28.361Z,99.90
2019-03-11T06:28:56.117Z,99.90
2019-03-11T06:31:23.841Z,99.90
2019-03-11T06:33:51.572Z,99.90
2019-03-11T06:36:19.297Z,99.90
2019-03-11T06:38:47.062Z,99.90
2019-03-11T06:41:15.044Z,99.90
2019-03-11T06:43:42.837Z,99.90
2019-03-11T06:46:10.612Z,99.90
2019-03-11T06:48:39.573Z,99.90
2019-03-11T06:51:09.056Z,99.90
2019-03-11T06:53:37.292Z,99.90
2019-03-11T06:56:05.065Z,99.90
2019-03-11T06:58:32.827Z,99.90
2019-03-11T07:01:00.701Z,99.90
2019-03-11T07:03:28.459Z,99.90
2019-03-11T07:05:56.257Z,99.90
2019-03-11T07:08:24.025Z,99.90
2019-03-11T07:10:51.782Z,99.90
2019-03-11T07:13:19.610Z,99.90
2019-03-11T07:15:47.340Z,99.90
2019-03-11T07:18:15.129Z,99.90
2019-03-11T07:20:42.897Z,99.90
2019-03-11T07:23:10.605Z,99.90
2019-03-11T07:25:38.653Z,99.90
2019-03-11T07:28:06.365Z,99.90
2019-03-11T07:30:34.126Z,99.90
2019-03-11T07:33:02.010Z,99.90
2019-03-11T07:35:29.779Z,99.90
2019-03-11T07:37:57.558Z,99.90
2019-03-11T07:40:30.185Z,99.90
2019-03-11T07:42:54.830Z,99.90
2019-03-11T07:45:22.566Z,99.90
2019-03-11T07:47:50.307Z,99.90
2019-03-11T07:50:18.093Z,99.90
2019-03-11T07:52:45.838Z,99.90
2019-03-11T07:55:13.586Z,99.90
2019-03-11T07:57:41.343Z,99.90
2019-03-11T08:00:09.202Z,99.90
2019-03-11T08:02:36.970Z,99.90
2019-03-11T08:05:05.365Z,99.90
2019-03-11T08:07:33.436Z,99.90
2019-03-11T08:10:01.373Z,99.90
2019-03-11T08:12:29.109Z,99.90
2019-03-11T08:14:56.896Z,99.90
2019-03-11T08:17:24.629Z,99.90
2019-03-11T08:19:52.393Z,99.90
2019-03-11T08:22:20.154Z,99.90
2019-03-11T08:24:47.925Z,99.90
2019-03-11T08:27:15.698Z,99.90
2019-03-11T08:29:43.490Z,99.90
2019-03-11T08:32:11.486Z,99.90
2019-03-11T08:34:39.821Z,99.90
2019-03-11T08:37:07.852Z,99.90
2019-03-11T08:39:35.591Z,99.60
2019-03-11T08:42:03.605Z,98.80
2019-03-11T08:44:31.338Z,99.40
2019-03-11T08:46:59.102Z,98.90
2019-03-11T08:49:26.993Z,99.30
2019-03-11T08:51:54.729Z,99.90
2019-03-11T08:54:22.492Z,99.90
2019-03-11T08:56:50.246Z,99.90
2019-03-11T08:59:17.969Z,99.90
2019-03-11T09:01:45.879Z,99.90
2019-03-11T09:04:13.915Z,99.90
2019-03-11T09:06:41.649Z,99.90
2019-03-11T09:09:10.898Z,99.90
2019-03-11T09:11:38.669Z,99.90
2019-03-11T09:14:06.414Z,99.90
2019-03-11T09:16:34.139Z,99.90
2019-03-11T09:19:02.004Z,99.90
2019-03-11T09:21:29.761Z,99.80
2019-03-11T09:23:57.513Z,98.60
2019-03-11T09:26:25.281Z,98.10
2019-03-11T09:28:53.017Z,98.40
2019-03-11T09:31:20.791Z,98.20
2019-03-11T09:33:48.529Z,96.90
2019-03-11T09:36:16.302Z,96.20
2019-03-11T09:38:44.043Z,95.70
2019-03-11T09:41:11.772Z,94.90
2019-03-11T09:43:39.561Z,95.10
2019-03-11T09:46:07.309Z,95.00
2019-03-11T09:48:35.163Z,93.70
2019-03-11T09:51:02.944Z,93.50
2019-03-11T09:53:30.696Z,93.10
2019-03-11T09:55:58.491Z,94.00
2019-03-11T09:58:26.230Z,94.20
2019-03-11T10:00:54.171Z,94.30
2019-03-11T10:03:22.033Z,93.80
2019-03-11T10:05:49.676Z,94.40
2019-03-11T10:08:17.463Z,95.10
2019-03-11T10:10:45.326Z,95.50
2019-03-11T10:13:13.063Z,96.30
2019-03-11T10:15:40.793Z,96.20
2019-03-11T10:18:08.565Z,96.30
2019-03-11T10:20:36.335Z,96.40
2019-03-11T10:23:04.106Z,95.90
2019-03-11T10:25:31.807Z,94.70
2019-03-11T10:27:59.549Z,92.70
2019-03-11T10:30:27.288Z,93.10
2019-03-11T10:32:55.014Z,93.20
2019-03-11T10:35:38.119Z,92.80
2019-03-11T10:37:52.302Z,93.00
2019-03-11T10:40:20.301Z,92.00
2019-03-11T10:42:48.189Z,92.60
2019-03-11T10:45:15.917Z,92.60
2019-03-11T10:47:43.648Z,92.90
2019-03-11T10:50:11.458Z,95.20
2019-03-11T10:52:39.206Z,92.50
2019-03-11T10:55:08.327Z,92.50
2019-03-11T10:57:36.072Z,91.60
2019-03-11T11:00:05.874Z,91.60
2019-03-11T11:02:33.661Z,91.30
2019-03-11T11:05:01.630Z,91.60
2019-03-11T11:07:29.402Z,92.50
2019-03-11T11:09:57.148Z,92.80
2019-03-11T11:12:25.134Z,92.50
2019-03-11T11:14:53.097Z,92.60
2019-03-11T11:17:20.828Z,92.40
2019-03-11T11:19:48.548Z,91.60
2019-03-11T11:22:16.269Z,91.50
2019-03-11T11:24:44.020Z,90.50
2019-03-11T11:27:11.745Z,90.20
2019-03-11T11:29:39.574Z,90.70
2019-03-11T11:32:07.334Z,91.30
2019-03-11T11:34:35.058Z,92.70
2019-03-11T11:37:02.766Z,91.50
2019-03-11T11:39:30.551Z,91.70
2019-03-11T11:41:58.265Z,90.70
2019-03-11T11:44:26.012Z,90.30
2019-03-11T11:46:53.788Z,90.40
2019-03-11T11:49:21.536Z,90.40
2019-03-11T11:51:49.353Z,90.90
2019-03-11T11:54:17.096Z,91.00
2019-03-11T11:56:44.826Z,91.00
2019-03-11T11:59:12.625Z,90.50
2019-03-11T12:01:40.360Z,90.50
2019-03-11T12:04:08.078Z,89.10
2019-03-11T12:06:35.820Z,86.50
2019-03-11T12:09:04.553Z,86.70
2019-03-11T12:11:32.363Z,86.30
2019-03-11T12:14:00.085Z,83.70
2019-03-11T12:16:27.818Z,82.20
2019-03-11T12:18:55.595Z,82.30
2019-03-11T12:21:23.333Z,81.80
2019-03-11T12:23:51.061Z,79.00
2019-03-11T12:26:18.901Z,76.90
2019-03-11T12:28:46.618Z,71.90
2019-03-11T12:31:14.435Z,71.70
2019-03-11T12:33:42.186Z,74.10
2019-03-11T12:36:09.946Z,78.10
2019-03-11T12:38:37.654Z,81.20
2019-03-11T12:41:05.387Z,79.30
2019-03-11T12:43:33.129Z,81.10
2019-03-11T12:46:00.881Z,81.40
2019-03-11T12:48:28.621Z,79.70
2019-03-11T12:50:56.370Z,78.50
2019-03-11T12:53:24.107Z,79.00
2019-03-11T12:55:51.841Z,80.10
2019-03-11T12:58:19.873Z,79.80
2019-03-11T13:00:47.629Z,75.00
2019-03-11T13:03:15.345Z,78.20
2019-03-11T13:05:43.063Z,80.00
2019-03-11T13:08:10.965Z,80.50
2019-03-11T13:10:38.775Z,80.10
2019-03-11T13:13:06.738Z,77.60
2019-03-11T13:15:34.493Z,72.30
2019-03-11T13:18:29.951Z,70.70
2019-03-11T13:20:58.060Z,73.50
2019-03-11T13:23:25.945Z,71.70
2019-03-11T13:25:53.863Z,71.20
2019-03-11T13:28:21.665Z,73.10
2019-03-11T13:30:49.392Z,73.30
2019-03-11T13:33:17.157Z,73.50
2019-03-11T13:35:44.905Z,73.20
2019-03-11T13:38:12.621Z,75.90
2019-03-11T13:40:40.331Z,78.20
2019-03-11T13:43:08.085Z,81.20
2019-03-11T13:45:35.833Z,83.10
2019-03-11T13:48:03.590Z,84.50
2019-03-11T13:50:31.313Z,86.10
2019-03-11T13:52:59.041Z,86.90
2019-03-11T13:55:26.777Z,87.60
2019-03-11T13:57:54.549Z,87.00
2019-03-11T14:00:22.258Z,86.10
2019-03-11T14:02:50.013Z,85.90
2019-03-11T14:05:17.770Z,85.20
2019-03-11T14:07:45.515Z,83.50
2019-03-11T14:10:13.285Z,82.80
2019-03-11T14:12:41.021Z,82.00
2019-03-11T14:15:09.123Z,81.00
2019-03-11T14:17:36.866Z,80.00
2019-03-11T14:20:04.980Z,79.80
2019-03-11T14:22:32.793Z,80.20
2019-03-11T14:25:00.525Z,80.10
2019-03-11T14:27:28.267Z,80.20
2019-03-11T14:29:56.034Z,81.80
2019-03-11T14:32:23.772Z,81.60
2019-03-11T14:34:51.502Z,81.80
2019-03-11T14:37:19.242Z,80.90
2019-03-11T14:39:47.005Z,78.80
2019-03-11T14:42:15.041Z,75.80
2019-03-11T14:44:42.785Z,74.60
2019-03-11T14:47:10.536Z,72.30
2019-03-11T14:49:38.299Z,70.20
2019-03-11T14:52:06.017Z,69.60
2019-03-11T14:54:33.770Z,69.70
2019-03-11T14:57:01.508Z,69.60
2019-03-11T14:59:29.247Z,68.80
2019-03-11T15:01:57.032Z,67.00
2019-03-11T15:04:24.688Z,66.60
2019-03-11T15:06:52.840Z,66.50
2019-03-11T15:09:20.565Z,67.30
2019-03-11T15:11:48.321Z,67.80
2019-03-11T15:14:16.056Z,68.50
2019-03-11T15:16:43.779Z,69.70
2019-03-11T15:19:11.719Z,71.60
2019-03-11T15:21:39.448Z,72.20
2019-03-11T15:24:07.185Z,72.90
2019-03-11T15:26:34.953Z,73.90
2019-03-11T15:29:02.701Z,74.20
2019-03-11T15:31:30.481Z,74.10
2019-03-11T15:33:58.224Z,71.80
2019-03-11T15:36:33.304Z,72.50
2019-03-11T15:38:55.557Z,71.40
2019-03-11T15:41:23.291Z,71.90
2019-03-11T15:43:51.117Z,71.70
2019-03-11T15:46:18.871Z,72.30
2019-03-11T15:48:46.593Z,72.50
2019-03-11T15:51:14.381Z,69.50
2019-03-11T15:53:42.181Z,67.00
2019-03-11T15:56:09.951Z,66.90
2019-03-11T15:58:37.697Z,66.60
2019-03-11T16:01:05.483Z,65.20
2019-03-11T16:03:36.505Z,64.90
2019-03-11T16:06:02.822Z,62.40
2019-03-11T16:08:30.573Z,63.40
2019-03-11T16:10:58.297Z,65.00
2019-03-11T16:13:26.098Z,66.00
2019-03-11T16:15:53.817Z,67.90
2019-03-11T16:18:21.590Z,66.70
2019-03-11T16:20:49.329Z,66.00
2019-03-11T16:23:17.142Z,64.00
2019-03-11T16:25:44.866Z,64.30
2019-03-11T16:28:12.593Z,64.40
2019-03-11T16:30:40.333Z,64.10
2019-03-11T16:33:08.054Z,64.70
2019-03-11T16:35:35.862Z,65.60
2019-03-11T16:38:03.594Z,66.40
2019-03-11T16:40:31.377Z,66.30
2019-03-11T16:42:59.112Z,65.00
2019-03-11T16:45:26.857Z,64.10
2019-03-11T16:47:54.620Z,64.60
2019-03-11T16:50:22.483Z,66.10
2019-03-11T16:52:50.235Z,66.60
2019-03-11T16:55:20.333Z,66.80
2019-03-11T16:57:48.066Z,67.90
2019-03-11T17:00:17.777Z,67.20
2019-03-11T17:02:54.922Z,67.80
2019-03-11T17:05:22.629Z,68.10
2019-03-11T17:07:50.399Z,69.10
2019-03-11T17:10:18.138Z,69.90
2019-03-11T17:12:45.942Z,70.50
2019-03-11T17:15:13.773Z,70.40
2019-03-11T17:17:41.505Z,71.20
2019-03-11T17:20:10.113Z,71.40
2019-03-11T17:22:37.897Z,71.90
2019-03-11T17:25:07.110Z,71.70
2019-03-11T17:27:34.851Z,71.60
2019-03-11T17:30:02.589Z,72.40
2019-03-11T17:32:30.314Z,72.90
2019-03-11T17:34:58.059Z,72.80
2019-03-11T17:37:25.801Z,73.60
2019-03-11T17:39:53.525Z,74.00
2019-03-11T17:42:21.271Z,74.60
2019-03-11T17:44:49.098Z,75.10
2019-03-11T17:47:16.881Z,75.30
2019-03-11T17:49:44.625Z,75.50
2019-03-11T17:52:12.357Z,76.20
2019-03-11T17:54:40.106Z,76.70
2019-03-11T17:57:07.938Z,77.20
2019-03-11T17:59:35.690Z,77.60
2019-03-11T18:02:10.730Z,78.50
2019-03-11T18:04:38.413Z,78.80
2019-03-11T18:07:06.190Z,79.50
2019-03-11T18:09:33.905Z,79.80
2019-03-11T18:12:01.659Z,80.50
2019-03-11T18:14:29.745Z,81.10
2019-03-11T18:16:57.501Z,81.30
2019-03-11T18:19:25.266Z,82.00
2019-03-11T18:21:52.958Z,82.40
2019-03-11T18:24:20.690Z,82.70
2019-03-11T18:26:48.415Z,83.00
2019-03-11T18:29:16.154Z,83.10
2019-03-11T18:31:43.871Z,83.60
2019-03-11T18:34:11.639Z,84.70
2019-03-11T18:36:39.402Z,84.80
2019-03-11T18:39:08.037Z,85.10
2019-03-11T18:41:35.765Z,85.40
2019-03-11T18:44:03.499Z,85.90
2019-03-11T18:46:31.230Z,86.50
2019-03-11T18:48:58.957Z,86.30
2019-03-11T18:51:26.661Z,86.70
2019-03-11T18:53:54.383Z,87.00
2019-03-11T18:56:22.127Z,87.40
2019-03-11T18:58:49.830Z,87.70
2019-03-11T19:01:17.523Z,88.10
2019-03-11T19:03:45.264Z,88.20
2019-03-11T19:06:12.990Z,88.80
2019-03-11T19:08:40.777Z,89.30
2019-03-11T19:11:08.530Z,89.30
2019-03-11T19:13:36.990Z,89.40
2019-03-11T19:16:04.678Z,89.70
2019-03-11T19:18:32.422Z,89.80
2019-03-11T19:21:00.118Z,90.10
2019-03-11T19:23:27.827Z,90.10
2019-03-11T19:25:55.553Z,90.40
2019-03-11T19:28:23.292Z,90.10
2019-03-11T19:30:51.117Z,90.60
2019-03-11T19:33:19.160Z,90.30
2019-03-11T19:35:46.950Z,90.40
2019-03-11T19:38:14.638Z,90.40
2019-03-11T19:40:42.446Z,90.60
2019-03-11T19:43:10.191Z,90.70
2019-03-11T19:45:37.930Z,90.80
2019-03-11T19:48:05.629Z,90.90
2019-03-11T19:50:33.475Z,90.90
2019-03-11T19:53:01.205Z,91.10
2019-03-11T19:55:28.935Z,91.50
2019-03-11T19:57:56.745Z,91.80
2019-03-11T20:00:24.498Z,92.10
2019-03-11T20:02:52.297Z,92.40
2019-03-11T20:05:21.250Z,93.00
2019-03-11T20:07:48.931Z,93.10
2019-03-11T20:10:16.824Z,93.20
2019-03-11T20:12:44.850Z,93.40
2019-03-11T20:15:12.770Z,93.70
2019-03-11T20:17:40.528Z,93.90
2019-03-11T20:20:09.243Z,94.00
2019-03-11T20:22:37.014Z,94.00
2019-03-11T20:25:06.215Z,94.00
2019-03-11T20:27:33.857Z,93.70
2019-03-11T20:30:01.632Z,93.20
2019-03-11T20:32:29.359Z,93.10
2019-03-11T20:34:57.077Z,93.20
2019-03-11T20:37:25.065Z,93.20
2019-03-11T20:39:52.706Z,93.20
2019-03-11T20:42:20.518Z,93.40
2019-03-11T20:44:48.184Z,94.00
2019-03-11T20:47:15.931Z,94.10
2019-03-11T20:49:43.641Z,94.40
2019-03-11T20:52:11.387Z,94.40
2019-03-11T20:54:39.124Z,94.60
2019-03-11T20:57:06.872Z,94.70
2019-03-11T20:59:34.656Z,94.80
2019-03-11T21:02:02.356Z,95.00
2019-03-11T21:04:30.092Z,95.30
2019-03-11T21:06:57.855Z,95.40
2019-03-11T21:09:25.546Z,95.40
2019-03-11T21:11:54.746Z,95.70
2019-03-11T21:14:22.694Z,95.90
2019-03-11T21:16:50.483Z,96.10
2019-03-11T21:19:18.378Z,96.30
2019-03-11T21:21:47.045Z,96.40
2019-03-11T21:24:14.717Z,96.70
2019-03-11T21:26:42.518Z,96.90
2019-03-11T21:29:19.329Z,96.90
2019-03-11T21:31:47.204Z,96.90
2019-03-11T21:34:16.829Z,96.90
2019-03-11T21:36:44.592Z,96.90
2019-03-11T21:39:16.493Z,97.00
2019-03-11T21:41:46.671Z,97.20
2019-03-11T21:44:17.387Z,97.20
2019-03-11T21:46:48.233Z,97.30
2019-03-11T21:49:17.478Z,97.20
2019-03-11T21:51:45.995Z,97.20
2019-03-11T21:54:16.533Z,97.40
2019-03-11T21:56:47.341Z,97.50
2019-03-11T21:59:19.135Z,97.90
2019-03-11T22:01:48.306Z,98.20
2019-03-11T22:04:16.132Z,98.30
2019-03-11T22:06:47.362Z,98.30
2019-03-11T22:09:17.310Z,98.50
2019-03-11T22:11:47.807Z,98.20
2019-03-11T22:14:17.468Z,98.40
2019-03-11T22:16:45.178Z,98.50
2019-03-11T22:19:16.240Z,98.50
2019-03-11T22:21:43.934Z,98.50
2019-03-11T22:24:11.686Z,98.70
2019-03-11T22:26:39.421Z,98.90
2019-03-11T22:29:07.198Z,99.10
2019-03-11T22:31:34.949Z,99.20
2019-03-11T22:34:03.604Z,99.40
2019-03-11T22:36:32.238Z,99.60
2019-03-11T22:39:04.161Z,99.70
2019-03-11T22:41:34.713Z,99.70
2019-03-11T22:44:05.433Z,99.70
2019-03-11T22:46:33.920Z,99.60
2019-03-11T22:49:04.228Z,99.70
2019-03-11T22:51:34.586Z,99.80
2019-03-11T22:54:02.434Z,99.90
2019-03-11T22:56:32.846Z,99.90
2019-03-11T22:59:00.586Z,99.90
2019-03-11T23:01:28.506Z,99.90
2019-03-11T23:03:56.305Z,99.90
2019-03-11T23:06:24.042Z,99.90
2019-03-11T23:08:51.778Z,99.90
2019-03-11T23:11:19.498Z,99.90
2019-03-11T23:13:47.249Z,99.90
2019-03-11T23:16:15.012Z,99.90
2019-03-11T23:18:42.746Z,99.90
2019-03-11T23:21:10.486Z,99.90
2019-03-11T23:23:38.221Z,99.90
2019-03-11T23:26:05.962Z,99.90
2019-03-11T23:28:36.111Z,99.90
2019-03-11T23:31:03.913Z,99.90
2019-03-11T23:33:31.632Z,99.90
2019-03-11T23:35:59.365Z,99.90
2019-03-11T23:38:27.084Z,99.90
2019-03-11T23:40:54.810Z,99.90
2019-03-11T23:43:22.525Z,99.90
2019-03-11T23:45:50.299Z,99.90
2019-03-11T23:48:19.852Z,99.90
2019-03-11T23:50:47.597Z,99.90
2019-03-11T23:53:15.332Z,99.90
2019-03-11T23:55:44.504Z,99.90
2019-03-11T23:58:12.237Z,99.90
